Terminal Aerodrome Forecast
Issued by NWS Wilmington, OH

Current Version | Previous Version | Text Only | Print | Product List | Glossary Off
Versions: 1 2 3 4 5 6 7 8 9 10 11 12 13 14 15 16 17 18 19 20

000
FTUS41 KILN 211100
TAFCMH
TAF
KCMH 211130Z 2112/2212 31008KT P6SM VCSH OVC015
      TEMPO 2113/2116 4SM -SHRA
     FM211600 32010G18KT P6SM OVC025
     FM212200 33008KT P6SM OVC015=

USA.gov is the U.S. government's official web portal to all federal, state and local government web resources and services.